Time;durP1;ratioP1;P1;durP2;ratioP2;P2;SDS_P1;SDS_P2;PMS_P1;PMS_P2;Temp;Humidity;BMP_temperature;BMP_pressure;BME280_temperature;BME280_humidity;BME280_pressure;Samples;Min_cycle;Max_cycle;Signal;HPM_P1;HPM_P2
2021/01/23 00:00:05;;;;;;;33.63;21.05;;;;;;;2.22;100.00;93338.59;1029876;28;20034;-66
2021/01/23 00:00:36;;;;;;;35.86;21.82;;;;;;;2.21;100.00;93341.44;1034875;28;20025;-66
2021/01/23 00:01:06;;;;;;;26.95;18.50;;;;;;;2.26;100.00;93339.59;1022944;28;20512;-65
2021/01/23 00:01:37;;;;;;;29.27;19.90;;;;;;;2.26;100.00;93336.25;1026886;28;20103;-65
2021/01/23 00:02:07;;;;;;;31.60;21.42;;;;;;;2.18;100.00;93329.03;1031034;28;20698;-65
2021/01/23 00:02:38;;;;;;;31.63;18.75;;;;;;;2.26;100.00;93338.84;1025527;28;20046;-66
2021/01/23 00:03:08;;;;;;;30.27;20.17;;;;;;;2.25;100.00;93334.72;1034649;28;20025;-66
2021/01/23 00:03:44;;;;;;;30.92;19.80;;;;;;;2.17;100.00;93324.91;1032950;28;20022;-64
2021/01/23 00:04:15;;;;;;;32.26;19.80;;;;;;;2.25;100.00;93337.28;1031518;28;20044;-63
2021/01/23 00:04:45;;;;;;;30.40;20.50;;;;;;;2.25;100.00;93339.88;1038129;28;20036;-63
2021/01/23 00:05:16;;;;;;;30.65;19.20;;;;;;;2.21;100.00;93328.50;1034708;28;20034;-67
2021/01/23 00:05:46;;;;;;;33.55;20.63;;;;;;;2.24;100.00;93335.72;1027163;28;20039;-65
2021/01/23 00:06:17;;;;;;;29.80;19.60;;;;;;;2.19;100.00;93336.56;1030655;28;20038;-64
2021/01/23 00:06:47;;;;;;;33.70;21.08;;;;;;;2.23;100.00;93334.97;1022476;28;20406;-65
2021/01/23 00:07:18;;;;;;;27.85;19.35;;;;;;;2.22;100.00;93343.00;1026924;28;20103;-66
2021/01/23 00:07:48;;;;;;;34.38;20.65;;;;;;;2.14;100.00;93328.81;1031037;28;20057;-64
2021/01/23 00:08:19;;;;;;;34.90;22.50;;;;;;;2.20;100.00;93338.09;1030554;28;20026;-65
2021/01/23 00:08:49;;;;;;;39.88;23.35;;;;;;;2.21;100.00;93341.44;1039095;28;20041;-66
2021/01/23 00:09:20;;;;;;;40.92;22.63;;;;;;;2.19;100.00;93338.38;1038729;28;20033;-65
2021/01/23 00:09:50;;;;;;;34.92;21.65;;;;;;;2.18;100.00;93341.97;1031312;28;20034;-64
2021/01/23 00:10:21;;;;;;;32.38;21.05;;;;;;;2.16;100.00;93337.09;1027214;28;20046;-65
2021/01/23 00:10:51;;;;;;;36.03;22.50;;;;;;;2.18;100.00;93342.78;1022468;28;20485;-65
2021/01/23 00:11:22;;;;;;;33.22;21.38;;;;;;;2.13;100.00;93335.03;1022867;28;20031;-65
2021/01/23 00:11:52;;;;;;;34.35;21.90;;;;;;;2.17;100.00;93340.44;1026979;28;20062;-65
2021/01/23 00:12:22;;;;;;;36.70;23.55;;;;;;;2.16;100.00;93337.09;1026682;28;20038;-66
2021/01/23 00:12:53;;;;;;;32.50;23.05;;;;;;;2.17;100.00;93340.44;1030946;28;20030;-65
2021/01/23 00:13:23;;;;;;;37.13;21.25;;;;;;;2.11;100.00;93331.94;1026736;28;20038;-64
2021/01/23 00:13:54;;;;;;;35.17;22.77;;;;;;;2.17;100.00;93335.25;1026820;28;20814;-63
2021/01/23 00:14:24;;;;;;;37.97;23.42;;;;;;;2.12;100.00;93338.66;1030508;28;20034;-65
2021/01/23 00:14:55;;;;;;;36.90;22.42;;;;;;;2.15;100.00;93342.50;1030136;28;20554;-65
2021/01/23 00:15:25;;;;;;;34.05;22.08;;;;;;;2.13;100.00;93340.97;1034638;28;20124;-65
2021/01/23 00:15:56;;;;;;;33.78;22.27;;;;;;;2.13;100.00;93346.16;1026639;28;20023;-65
2021/01/23 00:16:26;;;;;;;37.30;23.58;;;;;;;2.13;100.00;93340.22;1026543;28;20030;-65
2021/01/23 00:16:57;;;;;;;36.83;22.25;;;;;;;2.11;100.00;93348.25;1026898;28;20034;-68
2021/01/23 00:17:27;;;;;;;34.15;23.17;;;;;;;2.09;100.00;93350.31;1031160;28;20026;-64
2021/01/23 00:17:58;;;;;;;39.42;24.60;;;;;;;2.04;100.00;93334.81;1041017;28;20033;-66
2021/01/23 00:18:29;;;;;;;32.25;22.27;;;;;;;2.10;100.00;93346.69;1026844;28;20030;-66
2021/01/23 00:18:59;;;;;;;38.70;23.73;;;;;;;2.13;100.00;93343.56;1022581;28;20039;-69
2021/01/23 00:19:30;;;;;;;36.42;23.75;;;;;;;2.13;100.00;93346.16;1025821;28;20023;-64
2021/01/23 00:20:00;;;;;;;34.83;21.23;;;;;;;2.15;100.00;93347.69;1027129;28;20027;-65
2021/01/23 00:20:31;;;;;;;33.70;21.55;;;;;;;2.11;100.00;93344.88;1034867;28;20070;-65
2021/01/23 00:21:01;;;;;;;33.25;21.17;;;;;;;2.10;100.00;93346.69;1030112;28;20030;-65
2021/01/23 00:21:32;;;;;;;40.70;24.08;;;;;;;2.13;100.00;93346.16;1027158;28;20035;-65
2021/01/23 00:22:02;;;;;;;39.15;23.67;;;;;;;2.04;100.00;93337.41;1026692;28;20123;-64
2021/01/23 00:22:33;;;;;;;40.40;24.83;;;;;;;2.07;100.00;93333.50;1027135;28;20512;-64
2021/01/23 00:23:03;;;;;;;33.20;22.42;;;;;;;2.10;100.00;93351.84;1033620;28;20119;-66
2021/01/23 00:23:34;;;;;;;40.75;23.60;;;;;;;2.07;100.00;93344.63;1030653;28;20018;-65
2021/01/23 00:24:04;;;;;;;36.78;22.42;;;;;;;2.01;100.00;93332.00;1026869;28;20018;-64
2021/01/23 00:24:35;;;;;;;37.63;24.65;;;;;;;2.09;100.00;93344.38;1032312;28;20026;-64
2021/01/23 00:25:08;;;;;;;40.95;23.77;;;;;;;2.11;100.00;93350.03;1030123;28;20779;-65
2021/01/23 00:25:39;;;;;;;40.32;23.36;;;;;;;2.09;100.00;93355.50;1035309;28;20021;-63
2021/01/23 00:26:09;;;;;;;33.60;22.67;;;;;;;2.08;100.00;93348.00;1034823;28;20137;-65
2021/01/23 00:26:43;;;;;;;50.55;26.00;;;;;;;2.05;100.00;93354.50;1039559;28;20021;-67
2021/01/23 00:27:13;;;;;;;32.62;20.48;;;;;;;2.07;100.00;93349.81;1034638;28;20017;-64
2021/01/23 00:27:44;;;;;;;37.58;23.10;;;;;;;2.08;100.00;93348.78;1033769;28;20022;-65
2021/01/23 00:28:14;;;;;;;37.78;23.38;;;;;;;2.07;100.00;93360.16;1035174;28;20025;-67
2021/01/23 00:28:45;;;;;;;47.53;25.60;;;;;;;2.09;100.00;93349.56;1030785;28;20084;-65
2021/01/23 00:29:15;;;;;;;40.58;24.52;;;;;;;2.08;100.00;93353.94;1034795;28;20613;-68
2021/01/23 00:29:46;;;;;;;34.92;22.33;;;;;;;2.08;100.00;93353.94;1034824;28;20037;-64
2021/01/23 00:30:17;;;;;;;36.25;22.25;;;;;;;2.09;100.00;93360.66;1026742;28;20069;-65
2021/01/23 00:30:47;;;;;;;33.60;22.33;;;;;;;2.09;100.00;93358.06;1027151;28;20419;-65
2021/01/23 00:31:18;;;;;;;39.83;22.75;;;;;;;2.09;100.00;93355.50;1030880;28;20022;-65
2021/01/23 00:31:48;;;;;;;37.72;23.77;;;;;;;2.09;100.00;93358.06;1030712;28;20053;-65
2021/01/23 00:32:18;;;;;;;35.42;22.15;;;;;;;1.99;100.00;93350.38;1035256;28;20022;-65
2021/01/23 00:32:49;;;;;;;40.30;24.00;;;;;;;2.07;100.00;93354.22;1038894;28;20032;-64
2021/01/23 00:33:19;;;;;;;48.25;26.27;;;;;;;2.05;100.00;93364.84;1042282;28;20020;-66
2021/01/23 00:33:50;;;;;;;41.08;24.77;;;;;;;2.08;100.00;93358.34;1043176;28;20025;-65
2021/01/23 00:34:20;;;;;;;42.35;24.20;;;;;;;2.08;100.00;93356.53;1034615;28;20037;-64
2021/01/23 00:34:51;;;;;;;38.25;24.27;;;;;;;2.09;100.00;93359.91;1034199;28;20060;-66
2021/01/23 00:35:21;;;;;;;46.88;26.73;;;;;;;2.06;100.00;93360.44;1034580;28;20014;-63
2021/01/23 00:35:52;;;;;;;39.90;24.33;;;;;;;2.08;100.00;93360.94;1030746;28;20018;-65
2021/01/23 00:36:23;;;;;;;43.35;24.50;;;;;;;2.07;100.00;93357.56;1038932;28;20045;-61
2021/01/23 00:36:53;;;;;;;48.20;26.52;;;;;;;2.05;100.00;93359.66;1030751;28;20041;-65
2021/01/23 00:37:24;;;;;;;40.78;23.33;;;;;;;1.98;100.00;93353.22;1030413;28;20624;-65
2021/01/23 00:37:54;;;;;;;40.20;24.77;;;;;;;1.94;100.00;93352.22;1026862;28;20023;-67
2021/01/23 00:38:27;;;;;;;39.25;24.02;;;;;;;2.06;100.00;93361.19;1029814;28;20018;-65
2021/01/23 00:38:58;;;;;;;43.50;24.30;;;;;;;2.06;100.00;93358.59;1035069;28;20034;-64
2021/01/23 00:39:28;;;;;;;44.58;23.85;;;;;;;2.07;100.00;93360.16;1030588;28;20094;-64
2021/01/23 00:39:59;;;;;;;41.55;24.55;;;;;;;2.05;100.00;93359.66;1026505;28;20030;-64
2021/01/23 00:40:29;;;;;;;59.80;28.77;;;;;;;2.01;100.00;93363.81;1027062;28;20532;-63
2021/01/23 00:41:00;;;;;;;48.50;26.17;;;;;;;2.01;100.00;93358.66;1030692;28;20034;-64
2021/01/23 00:41:30;;;;;;;47.15;25.17;;;;;;;2.00;100.00;93357.09;1030439;28;20491;-64
2021/01/23 00:42:01;;;;;;;37.78;23.45;;;;;;;2.03;100.00;93359.16;1026789;28;20065;-65
2021/01/23 00:42:31;;;;;;;52.13;26.15;;;;;;;2.01;100.00;93356.06;1026607;28;20106;-64
2021/01/23 00:43:02;;;;;;;53.92;27.63;;;;;;;2.00;100.00;93362.25;1027004;28;20026;-65
2021/01/23 00:43:32;;;;;;;48.75;26.15;;;;;;;2.02;100.00;93360.19;1026618;28;20033;-65
2021/01/23 00:44:03;;;;;;;47.83;24.75;;;;;;;2.02;100.00;93360.19;1030644;28;20042;-64
2021/01/23 00:44:33;;;;;;;49.65;26.33;;;;;;;2.01;100.00;93363.03;1031031;28;20038;-64
2021/01/23 00:45:04;;;;;;;39.28;23.55;;;;;;;1.99;100.00;93370.31;1025627;28;20038;-65
2021/01/23 00:45:35;;;;;;;34.56;22.44;;;;;;;2.02;100.00;93359.44;1034880;28;20065;-64
2021/01/23 00:46:05;;;;;;;36.95;22.67;;;;;;;2.01;100.00;93358.66;1034872;28;20026;-67
2021/01/23 00:46:36;;;;;;;42.47;24.13;;;;;;;2.02;100.00;93365.38;1035362;28;20021;-65
2021/01/23 00:47:06;;;;;;;40.30;23.50;;;;;;;2.02;100.00;93365.38;1043131;28;20059;-61
2021/01/23 00:47:37;;;;;;;43.20;24.80;;;;;;;2.01;100.00;93366.41;1037677;28;20495;-65
2021/01/23 00:48:09;;;;;;;38.72;22.48;;;;;;;2.02;100.00;93370.53;1034447;28;20068;-64
2021/01/23 00:48:40;;;;;;;39.44;23.94;;;;;;;2.00;100.00;93362.25;1034065;28;20620;-65
2021/01/23 00:49:10;;;;;;;42.30;24.08;;;;;;;2.03;100.00;93366.91;1030804;28;20053;-63
2021/01/23 00:49:41;;;;;;;48.05;24.88;;;;;;;2.05;100.00;93374.41;1030934;28;20135;-64
2021/01/23 00:50:12;;;;;;;53.00;26.65;;;;;;;1.98;100.00;93369.53;1034477;28;20033;-66
2021/01/23 00:50:43;;;;;;;52.78;27.45;;;;;;;1.96;100.00;93371.59;1038695;28;20442;-65
2021/01/23 00:51:13;;;;;;;50.08;26.76;;;;;;;1.96;100.00;93379.34;1039255;28;20296;-64
2021/01/23 00:51:44;;;;;;;48.65;26.10;;;;;;;1.95;100.00;93377.81;1038263;28;20029;-64
2021/01/23 00:52:14;;;;;;;47.17;26.48;;;;;;;1.89;100.00;93369.31;1038584;28;20025;-64
2021/01/23 00:52:45;;;;;;;53.15;25.98;;;;;;;1.98;100.00;93385.03;1035150;28;20026;-66
2021/01/23 00:53:15;;;;;;;50.30;26.17;;;;;;;1.95;100.00;93382.22;1038936;28;20501;-64
2021/01/23 00:53:45;;;;;;;47.45;26.88;;;;;;;1.93;100.00;93382.47;1042276;28;20110;-65
2021/01/23 00:54:16;;;;;;;45.80;24.23;;;;;;;1.95;100.00;93380.41;1034934;28;20033;-64
2021/01/23 00:54:46;;;;;;;58.10;28.55;;;;;;;1.93;100.00;93390.22;1033993;28;20022;-65
2021/01/23 00:55:19;;;;;;;51.40;26.27;;;;;;;1.95;100.00;93380.41;1030420;28;20034;-64
2021/01/23 00:55:49;;;;;;;52.52;27.86;;;;;;;1.93;100.00;93381.69;1029805;28;20065;-65
2021/01/23 00:56:23;;;;;;;42.85;25.60;;;;;;;1.95;100.00;93389.97;1030735;28;20045;-66
2021/01/23 00:56:53;;;;;;;47.12;25.56;;;;;;;1.97;100.00;93388.66;1035054;28;20030;-65
2021/01/23 00:57:23;;;;;;;46.97;25.08;;;;;;;1.95;100.00;93389.97;1038078;28;20025;-64
2021/01/23 00:57:54;;;;;;;50.60;26.30;;;;;;;1.90;100.00;93388.19;1034752;28;20021;-64
2021/01/23 00:58:24;;;;;;;65.18;28.73;;;;;;;1.82;100.00;93381.75;1034631;28;20620;-65
2021/01/23 00:58:55;;;;;;;39.08;23.85;;;;;;;1.92;100.00;93396.44;1042855;28;20103;-62
2021/01/23 00:59:25;;;;;;;45.33;25.17;;;;;;;1.93;100.00;93390.22;1043199;28;20139;-63
2021/01/23 00:59:56;;;;;;;47.05;25.63;;;;;;;1.90;100.00;93393.34;1038745;28;20410;-65
2021/01/23 01:00:26;;;;;;;39.58;23.75;;;;;;;1.90;100.00;93390.75;1035105;28;20040;-64
2021/01/23 01:00:57;;;;;;;44.22;24.83;;;;;;;1.90;100.00;93393.34;1033963;28;20143;-62
2021/01/23 01:01:27;;;;;;;49.47;27.17;;;;;;;1.92;100.00;93401.63;1022661;28;20114;-66
2021/01/23 01:01:58;;;;;;;43.15;25.42;;;;;;;1.93;100.00;93398.00;1029394;28;20061;-64
2021/01/23 01:02:28;;;;;;;58.33;28.40;;;;;;;1.92;100.00;93399.03;1027281;28;20038;-66
2021/01/23 01:02:59;;;;;;;56.90;28.30;;;;;;;1.92;100.00;93403.44;1026337;28;20560;-62
2021/01/23 01:03:29;;;;;;;44.03;23.70;;;;;;;1.93;100.00;93397.22;1030892;28;20038;-65
2021/01/23 01:04:00;;;;;;;49.38;26.10;;;;;;;1.93;100.00;93402.38;1038712;28;20622;-65
2021/01/23 01:04:30;;;;;;;41.38;24.30;;;;;;;1.89;100.00;93400.34;1038709;28;20021;-64
2021/01/23 01:05:00;;;;;;;47.33;25.75;;;;;;;1.90;100.00;93398.50;1037855;28;20470;-65
2021/01/23 01:05:31;;;;;;;52.22;27.58;;;;;;;1.89;100.00;93399.56;1038533;28;20021;-65
2021/01/23 01:06:02;;;;;;;36.95;22.75;;;;;;;1.90;100.00;93406.28;1034566;28;20033;-64
2021/01/23 01:06:32;;;;;;;41.03;23.95;;;;;;;1.88;100.00;93403.19;1031828;28;20021;-65
2021/01/23 01:07:03;;;;;;;43.70;23.95;;;;;;;1.89;100.00;93407.31;1036412;28;20495;-64
2021/01/23 01:07:33;;;;;;;52.67;26.85;;;;;;;1.90;100.00;93411.44;1035024;28;20025;-65
2021/01/23 01:08:04;;;;;;;39.33;23.25;;;;;;;1.94;100.00;93415.03;1034541;28;20029;-63
2021/01/23 01:08:34;;;;;;;39.92;24.50;;;;;;;1.91;100.00;93415.56;1034119;28;20026;-64
2021/01/23 01:09:05;;;;;;;52.53;27.23;;;;;;;1.92;100.00;93414.56;1031190;28;20057;-66
2021/01/23 01:09:35;;;;;;;56.78;28.23;;;;;;;1.92;100.00;93419.72;1032493;28;20037;-64
2021/01/23 01:10:06;;;;;;;41.85;25.17;;;;;;;1.92;100.00;93422.31;1037569;28;20033;-64
2021/01/23 01:10:37;;;;;;;42.80;25.20;;;;;;;1.92;100.00;93417.13;1038695;28;20037;-65
2021/01/23 01:11:07;;;;;;;48.30;27.08;;;;;;;1.90;100.00;93416.63;1033791;28;20219;-64
2021/01/23 01:11:38;;;;;;;45.50;24.90;;;;;;;1.92;100.00;93424.91;1030770;28;20026;-65
2021/01/23 01:12:08;;;;;;;45.25;25.42;;;;;;;1.92;100.00;93422.31;1030228;28;20038;-65
2021/01/23 01:12:39;;;;;;;42.08;24.20;;;;;;;1.93;100.00;93426.44;1030540;28;20093;-65
2021/01/23 01:13:09;;;;;;;46.95;25.90;;;;;;;1.98;100.00;93431.59;1039051;28;20060;-65
2021/01/23 01:13:40;;;;;;;55.60;27.88;;;;;;;1.94;100.00;93432.38;1038215;28;20091;-66
2021/01/23 01:14:10;;;;;;;45.30;25.92;;;;;;;1.92;100.00;93435.25;1030519;28;20120;-63
2021/01/23 01:14:41;;;;;;;42.80;25.63;;;;;;;1.95;100.00;93436.53;1030899;28;20034;-67
2021/01/23 01:15:11;;;;;;;50.28;26.33;;;;;;;1.95;100.00;93436.53;1030006;28;20054;-64
2021/01/23 01:15:42;;;;;;;44.30;24.65;;;;;;;1.94;100.00;93440.13;1026806;28;20045;-64
2021/01/23 01:16:12;;;;;;;45.25;26.60;;;;;;;1.93;100.00;93444.53;1039323;28;20506;-64
2021/01/23 01:16:43;;;;;;;43.20;25.77;;;;;;;1.84;100.00;93425.44;1042660;28;20037;-65
2021/01/23 01:17:13;;;;;;;42.30;25.65;;;;;;;1.93;100.00;93444.53;1043164;28;20036;-65
2021/01/23 01:17:44;;;;;;;41.70;23.98;;;;;;;1.90;100.00;93445.06;1042532;28;20029;-65
2021/01/23 01:18:14;;;;;;;37.50;24.30;;;;;;;1.88;100.00;93440.16;1034551;28;20033;-64
2021/01/23 01:18:44;;;;;;;41.90;24.40;;;;;;;1.92;100.00;93449.97;1030798;28;20515;-65
2021/01/23 01:19:15;;;;;;;37.25;23.23;;;;;;;1.93;100.00;93457.47;1030467;28;20049;-65
2021/01/23 01:19:45;;;;;;;42.08;24.20;;;;;;;1.90;100.00;93455.41;1030427;28;20026;-65
2021/01/23 01:20:16;;;;;;;38.90;23.48;;;;;;;1.89;100.00;93451.28;1040568;28;20021;-65
2021/01/23 01:20:46;;;;;;;36.35;23.48;;;;;;;1.94;100.00;93455.66;1036795;28;20033;-65
2021/01/23 01:21:17;;;;;;;48.97;26.50;;;;;;;1.92;100.00;93461.09;1035018;28;20885;-66
2021/01/23 01:21:47;;;;;;;35.58;23.13;;;;;;;1.94;100.00;93459.00;1039756;28;20780;-65
2021/01/23 01:22:18;;;;;;;43.28;24.70;;;;;;;1.95;100.00;93463.16;1039998;28;20032;-65
2021/01/23 01:22:49;;;;;;;40.05;23.88;;;;;;;1.88;100.00;93447.16;1034555;28;20026;-65
2021/01/23 01:23:19;;;;;;;37.17;23.20;;;;;;;1.95;100.00;93460.56;1026239;28;20600;-65
2021/01/23 01:23:50;;;;;;;38.80;23.83;;;;;;;1.99;100.00;93460.81;1026480;28;20026;-65
2021/01/23 01:24:20;;;;;;;40.60;22.52;;;;;;;1.97;100.00;93461.06;1022943;28;20026;-65
2021/01/23 01:24:50;;;;;;;36.40;22.70;;;;;;;1.98;100.00;93467.81;1030090;28;20022;-65
2021/01/23 01:25:21;;;;;;;41.58;23.80;;;;;;;1.87;100.00;93454.13;1034581;28;20041;-66
2021/01/23 01:25:51;;;;;;;32.25;22.23;;;;;;;1.95;100.00;93465.75;1030433;28;20066;-65
2021/01/23 01:26:22;;;;;;;50.13;25.55;;;;;;;1.95;100.00;93468.31;1034481;28;20504;-65
2021/01/23 01:26:52;;;;;;;37.45;22.40;;;;;;;1.95;100.00;93467.56;1034510;28;20076;-64
2021/01/23 01:27:23;;;;;;;28.83;20.10;;;;;;;1.95;100.00;93470.91;1038802;28;20036;-64
2021/01/23 01:27:53;;;;;;;37.28;22.33;;;;;;;1.95;100.00;93473.50;1038423;28;20730;-63
2021/01/23 01:28:24;;;;;;;34.95;21.05;;;;;;;1.96;100.00;93472.44;1034811;28;20030;-65
2021/01/23 01:28:54;;;;;;;31.67;19.65;;;;;;;1.96;100.00;93474.28;1034248;28;20089;-64
2021/01/23 01:29:25;;;;;;;39.75;22.85;;;;;;;1.92;100.00;93478.44;1035040;28;20026;-66
2021/01/23 01:29:55;;;;;;;35.53;22.08;;;;;;;1.83;100.00;93460.09;1034579;28;20535;-65
2021/01/23 01:30:26;;;;;;;30.48;18.90;;;;;;;1.77;100.00;93455.97;1034027;28;20033;-65
2021/01/23 01:30:56;;;;;;;35.42;20.75;;;;;;;1.85;100.00;93470.94;1036160;28;20034;-65
2021/01/23 01:31:27;;;;;;;27.00;18.17;;;;;;;1.91;100.00;93475.03;1027885;28;20022;-64
2021/01/23 01:31:57;;;;;;;29.98;19.35;;;;;;;1.85;100.00;93468.38;1031633;28;20088;-65
2021/01/23 01:32:28;;;;;;;23.30;16.33;;;;;;;1.89;100.00;93474.56;1032130;28;20003;-65
2021/01/23 01:32:58;;;;;;;27.42;17.40;;;;;;;1.87;100.00;93481.78;1031499;28;20030;-65
2021/01/23 01:33:28;;;;;;;25.27;17.02;;;;;;;1.87;100.00;93481.78;1040242;28;20063;-65
2021/01/23 01:33:59;;;;;;;22.00;15.48;;;;;;;1.81;100.00;93467.31;1043662;28;20033;-67
2021/01/23 01:34:29;;;;;;;24.83;16.65;;;;;;;1.83;100.00;93486.72;1048374;28;20024;-65
2021/01/23 01:35:00;;;;;;;28.73;18.25;;;;;;;1.82;100.00;93495.50;1042577;28;20560;-65
2021/01/23 01:35:31;;;;;;;24.55;16.95;;;;;;;1.81;100.00;93483.63;1035488;28;20041;-64
2021/01/23 01:36:02;;;;;;;19.74;15.12;;;;;;;1.80;100.00;93491.63;1031803;28;20030;-65
2021/01/23 01:36:32;;;;;;;18.65;14.88;;;;;;;1.79;100.00;93488.28;1032285;28;20065;-65
2021/01/23 01:37:03;;;;;;;22.40;15.32;;;;;;;1.75;100.00;93492.44;1032420;28;20062;-64
2021/01/23 01:37:33;;;;;;;23.20;16.08;;;;;;;1.76;100.00;93493.97;1036040;28;20022;-66
2021/01/23 01:38:04;;;;;;;19.38;12.93;;;;;;;1.76;100.00;93501.72;1036218;28;20018;-64
2021/01/23 01:38:34;;;;;;;20.48;13.70;;;;;;;1.67;100.00;93482.63;1040032;28;20030;-66
2021/01/23 01:39:05;;;;;;;18.42;12.43;;;;;;;1.72;100.00;93492.97;1035626;28;20022;-65
2021/01/23 01:39:35;;;;;;;13.48;10.35;;;;;;;1.71;100.00;93491.41;1031962;28;20033;-65
2021/01/23 01:40:06;;;;;;;12.95;10.13;;;;;;;1.68;100.00;93499.69;1023773;28;20027;-64
2021/01/23 01:40:37;;;;;;;15.66;12.52;;;;;;;1.68;100.00;93499.69;1027558;28;20033;-64
2021/01/23 01:41:07;;;;;;;17.15;12.65;;;;;;;1.67;100.00;93502.53;1028105;28;20027;-64
2021/01/23 01:41:38;;;;;;;15.80;11.57;;;;;;;1.58;100.00;93487.56;1032234;28;20161;-65
2021/01/23 01:42:09;;;;;;;15.58;11.94;;;;;;;1.61;100.00;93505.13;1031928;28;20049;-64
2021/01/23 01:42:39;;;;;;;17.63;12.15;;;;;;;1.59;100.00;93509.78;1035772;28;20495;-65
2021/01/23 01:43:10;;;;;;;12.93;8.95;;;;;;;1.55;100.00;93503.59;1032477;28;20034;-63
2021/01/23 01:43:41;;;;;;;16.80;11.02;;;;;;;1.56;100.00;93510.28;1032078;28;20014;-65
2021/01/23 01:44:11;;;;;;;17.17;12.05;;;;;;;1.52;100.00;93511.88;1028024;28;20038;-65
2021/01/23 01:44:41;;;;;;;14.27;10.50;;;;;;;1.51;100.00;93505.16;1027747;28;20030;-64
2021/01/23 01:45:12;;;;;;;13.35;10.13;;;;;;;1.41;100.00;93490.44;1033089;28;20600;-64
2021/01/23 01:45:43;;;;;;;11.65;8.43;;;;;;;1.43;100.00;93508.25;1039607;28;20029;-65
2021/01/23 01:46:13;;;;;;;12.38;8.48;;;;;;;1.32;100.00;93498.97;1040401;28;20028;-65
2021/01/23 01:46:44;;;;;;;12.30;8.35;;;;;;;1.35;100.00;93511.38;1031520;28;20440;-66
2021/01/23 01:47:14;;;;;;;12.23;8.55;;;;;;;1.35;100.00;93509.56;1028219;28;20031;-64
2021/01/23 01:47:45;;;;;;;10.98;8.13;;;;;;;1.30;100.00;93508.78;1031833;28;20073;-65
2021/01/23 01:48:15;;;;;;;11.13;8.20;;;;;;;1.32;100.00;93517.06;1023859;28;20045;-64
2021/01/23 01:48:48;;;;;;;10.45;7.72;;;;;;;1.26;100.00;93518.84;1027880;28;20081;-65
2021/01/23 01:49:18;;;;;;;11.60;8.14;;;;;;;1.20;100.00;93511.38;1028197;28;20037;-64
2021/01/23 01:49:49;;;;;;;8.93;7.22;;;;;;;1.11;100.00;93506.72;1028206;28;20428;-65
2021/01/23 01:50:20;;;;;;;12.20;8.10;;;;;;;1.13;100.00;93517.56;1028087;28;20070;-63
2021/01/23 01:50:53;;;;;;;10.32;7.47;;;;;;;1.04;100.00;93520.91;1017534;29;20039;-65
2021/01/23 01:51:24;;;;;;;12.02;8.38;;;;;;;1.08;100.00;93524.56;1028045;28;20027;-64
2021/01/23 01:51:55;;;;;;;9.50;6.75;;;;;;;1.00;100.00;93519.88;1027988;28;20027;-65
2021/01/23 01:52:25;;;;;;;10.25;7.50;;;;;;;0.91;100.00;93512.66;1029682;28;20030;-64
2021/01/23 01:52:56;;;;;;;9.23;6.30;;;;;;;0.88;100.00;93517.56;1032124;28;20690;-64
2021/01/23 01:53:27;;;;;;;9.23;5.78;;;;;;;0.88;100.00;93517.56;1028354;28;20031;-65
2021/01/23 01:53:58;;;;;;;10.00;6.36;;;;;;;0.81;100.00;93522.97;1032052;28;20101;-64
2021/01/23 01:54:28;;;;;;;11.05;7.57;;;;;;;0.77;100.00;93524.53;1032028;28;20033;-65
2021/01/23 01:54:59;;;;;;;10.50;7.03;;;;;;;0.78;100.00;93527.88;1027102;28;20034;-64
2021/01/23 01:55:34;;;;;;;11.38;7.60;;;;;;;0.78;100.00;93538.19;1027601;28;20061;-65
2021/01/23 01:56:06;;;;;;;9.70;6.24;;;;;;;0.62;100.00;93525.25;1027980;28;20050;-65
2021/01/23 01:56:36;;;;;;;11.80;7.20;;;;;;;0.67;100.00;93533.03;1028594;28;20027;-64
2021/01/23 01:57:06;;;;;;;7.90;5.67;;;;;;;0.57;100.00;93524.47;1031127;28;20022;-65
2021/01/23 01:57:37;;;;;;;9.30;6.33;;;;;;;0.53;100.00;93526.78;1031450;28;20038;-65
2021/01/23 01:58:07;;;;;;;9.07;6.07;;;;;;;0.59;100.00;93541.25;1032126;28;20026;-65
2021/01/23 01:58:38;;;;;;;8.83;6.20;;;;;;;0.55;100.00;93542.78;1035688;28;20033;-64
2021/01/23 01:59:08;;;;;;;9.97;6.50;;;;;;;0.56;100.00;93539.16;1035611;28;20391;-65
2021/01/23 01:59:39;;;;;;;8.90;6.18;;;;;;;0.54;100.00;93543.03;1040332;28;20022;-64
2021/01/23 02:00:10;;;;;;;9.17;6.17;;;;;;;0.46;100.00;93542.50;1040170;28;20542;-64
2021/01/23 02:00:40;;;;;;;7.32;5.25;;;;;;;0.44;100.00;93543.78;1043932;28;20065;-65
2021/01/23 02:01:11;;;;;;;8.00;5.20;;;;;;;0.43;100.00;93547.38;1039488;28;20033;-64
2021/01/23 02:01:41;;;;;;;9.07;6.03;;;;;;;0.35;100.00;93547.88;1031792;28;20514;-64
2021/01/23 02:02:48;;;;;;;9.33;5.40;;;;;;;0.30;100.00;93550.44;1028102;28;20095;-65
2021/01/23 02:03:31;;;;;;;8.15;5.00;;;;;;;0.23;100.00;93553.25;1031812;28;20022;-64
2021/01/23 02:04:12;;;;;;;9.20;5.22;;;;;;;0.19;100.00;93547.81;1037127;28;20646;-64
2021/01/23 02:05:15;;;;;;;7.00;4.85;;;;;;;0.17;100.00;93552.47;1035413;28;20073;-64
2021/01/23 02:06:14;;;;;;;5.63;3.78;;;;;;;0.07;100.00;93560.16;1039627;28;20040;-63
2021/01/23 02:07:04;;;;;;;6.20;4.22;;;;;;;0.03;100.00;93551.34;1030963;28;20035;-65
2021/01/23 02:07:36;;;;;;;7.35;4.30;;;;;;;-0.03;100.00;93549.78;1031691;28;20432;-64
2021/01/23 02:08:07;;;;;;;9.23;5.13;;;;;;;-0.07;100.00;93551.28;1031517;28;20029;-65
2021/01/23 02:08:47;;;;;;;10.10;4.87;;;;;;;-0.11;100.00;93558.75;1034706;28;20026;-64
2021/01/23 02:09:44;;;;;;;7.88;4.40;;;;;;;-0.11;100.00;93563.91;1031677;28;20754;-63
2021/01/23 02:10:40;;;;;;;6.80;3.97;;;;;;;-0.14;100.00;93564.41;1031945;28;20037;-64
2021/01/23 02:11:35;;;;;;;6.22;4.15;;;;;;;-0.17;100.00;93559.75;1030600;28;20613;-63
2021/01/23 02:12:27;;;;;;;6.65;4.28;;;;;;;-0.42;100.00;93536.44;1033148;28;20754;-64
2021/01/23 02:13:07;;;;;;;7.32;3.47;;;;;;;-0.22;100.00;93566.69;1035351;28;20034;-64
2021/01/23 02:13:43;;;;;;;10.50;4.88;;;;;;;-0.25;100.00;93568.72;1032004;28;20506;-63
2021/01/23 02:14:24;;;;;;;7.95;4.22;;;;;;;-0.28;100.00;93561.50;1036056;28;20020;-64
2021/01/23 02:15:00;;;;;;;7.13;4.53;;;;;;;-0.28;100.00;93576.19;1039389;28;20048;-64
2021/01/23 02:15:35;;;;;;;11.82;5.00;;;;;;;-0.30;100.00;93566.13;1035505;28;20041;-64
2021/01/23 02:16:09;;;;;;;6.80;4.57;;;;;;;-0.29;100.00;93570.25;1033733;28;20602;-64
2021/01/23 02:16:43;;;;;;;6.10;3.58;;;;;;;-0.31;100.00;93585.19;1031781;28;20037;-64
2021/01/23 02:17:14;;;;;;;6.68;3.83;;;;;;;-0.31;100.00;93574.09;1027681;28;20069;-65
2021/01/23 02:17:49;;;;;;;6.57;4.05;;;;;;;-0.32;100.00;93568.19;1031444;28;20080;-63
2021/01/23 02:18:20;;;;;;;8.15;4.10;;;;;;;-0.30;100.00;93580.81;1032547;28;20389;-64
2021/01/23 02:19:00;;;;;;;4.93;3.57;;;;;;;-0.37;100.00;93565.59;1028063;28;20030;-64
2021/01/23 02:19:56;;;;;;;7.90;4.30;;;;;;;-0.29;100.00;93580.56;1031872;28;20026;-64
2021/01/23 02:20:37;;;;;;;4.85;3.33;;;;;;;-0.36;100.00;93582.59;1032648;28;20032;-64
2021/01/23 02:21:28;;;;;;;6.65;3.65;;;;;;;-0.33;100.00;93584.66;1028473;28;20480;-65
2021/01/23 02:21:59;;;;;;;;;;;;;;;-0.34;100.00;93590.81;1032325;28;20499;-64
2021/01/23 02:22:58;;;;;;;6.93;3.80;;;;;;;-0.33;100.00;93582.09;1032060;28;19960;-64
2021/01/23 02:23:30;;;;;;;5.45;3.65;;;;;;;-0.33;100.00;93591.63;1037217;28;20032;-64
2021/01/23 02:24:02;;;;;;;2.90;2.20;;;;;;;-0.37;100.00;93582.81;1040128;28;20387;-64
2021/01/23 02:24:33;;;;;;;6.25;3.63;;;;;;;-0.34;100.00;93585.66;1032204;28;20500;-64
2021/01/23 02:25:04;;;;;;;8.60;4.00;;;;;;;-0.34;100.00;93590.06;1022376;28;20039;-64
2021/01/23 02:25:39;;;;;;;6.65;3.17;;;;;;;-0.38;100.00;93584.63;1024285;29;20050;-64
2021/01/23 02:26:12;;;;;;;4.82;3.38;;;;;;;-0.37;100.00;93591.34;1023761;29;20519;-65
2021/01/23 02:26:58;;;;;;;6.13;3.42;;;;;;;-0.36;100.00;93590.31;1025511;28;20026;-64
2021/01/23 02:27:50;;;;;;;4.82;2.85;;;;;;;-0.38;100.00;93594.94;1031697;28;20065;-65
2021/01/23 02:28:22;;;;;;;4.38;2.65;;;;;;;-0.40;100.00;93591.84;1037457;28;20399;-64